sensor_id;sensor_type;location;lat;lon;timestamp;P1;durP1;ratioP1;P2;durP2;ratioP2
6757;SDS011;3416;53.074;8.822;2023-02-11T00:00:22;44.65;;;32.08;;
6757;SDS011;3416;53.074;8.822;2023-02-11T00:02:49;58.25;;;36.70;;
6757;SDS011;3416;53.074;8.822;2023-02-11T00:05:17;49.72;;;31.25;;
6757;SDS011;3416;53.074;8.822;2023-02-11T00:07:44;50.95;;;32.65;;
6757;SDS011;3416;53.074;8.822;2023-02-11T00:10:14;59.90;;;30.88;;
6757;SDS011;3416;53.074;8.822;2023-02-11T00:12:41;48.00;;;30.23;;
6757;SDS011;3416;53.074;8.822;2023-02-11T00:15:09;53.78;;;31.25;;
6757;SDS011;3416;53.074;8.822;2023-02-11T00:17:36;51.47;;;30.52;;
6757;SDS011;3416;53.074;8.822;2023-02-11T00:20:09;60.20;;;31.50;;
6757;SDS011;3416;53.074;8.822;2023-02-11T00:22:36;62.75;;;32.15;;
6757;SDS011;3416;53.074;8.822;2023-02-11T00:25:04;61.15;;;31.27;;
6757;SDS011;3416;53.074;8.822;2023-02-11T00:27:33;60.72;;;34.60;;
6757;SDS011;3416;53.074;8.822;2023-02-11T00:30:02;51.92;;;32.45;;
6757;SDS011;3416;53.074;8.822;2023-02-11T00:32:29;53.70;;;31.50;;
6757;SDS011;3416;53.074;8.822;2023-02-11T00:34:57;54.53;;;32.33;;
6757;SDS011;3416;53.074;8.822;2023-02-11T00:37:24;55.17;;;28.80;;
6757;SDS011;3416;53.074;8.822;2023-02-11T00:39:51;55.50;;;29.40;;
6757;SDS011;3416;53.074;8.822;2023-02-11T00:42:18;50.63;;;30.00;;
6757;SDS011;3416;53.074;8.822;2023-02-11T00:44:46;52.20;;;29.25;;
6757;SDS011;3416;53.074;8.822;2023-02-11T00:47:13;47.08;;;29.85;;
6757;SDS011;3416;53.074;8.822;2023-02-11T00:49:40;54.47;;;30.55;;
6757;SDS011;3416;53.074;8.822;2023-02-11T00:52:08;47.17;;;27.42;;
6757;SDS011;3416;53.074;8.822;2023-02-11T00:54:35;48.80;;;30.80;;
6757;SDS011;3416;53.074;8.822;2023-02-11T00:57:02;57.15;;;29.75;;
6757;SDS011;3416;53.074;8.822;2023-02-11T00:59:29;52.85;;;31.25;;
6757;SDS011;3416;53.074;8.822;2023-02-11T01:01:57;57.60;;;33.58;;
6757;SDS011;3416;53.074;8.822;2023-02-11T01:04:24;46.85;;;26.50;;
6757;SDS011;3416;53.074;8.822;2023-02-11T01:06:51;50.35;;;31.08;;
6757;SDS011;3416;53.074;8.822;2023-02-11T01:09:18;47.50;;;30.77;;
6757;SDS011;3416;53.074;8.822;2023-02-11T01:11:46;60.40;;;32.17;;
6757;SDS011;3416;53.074;8.822;2023-02-11T01:14:13;51.17;;;29.60;;
6757;SDS011;3416;53.074;8.822;2023-02-11T01:16:41;48.05;;;31.83;;
6757;SDS011;3416;53.074;8.822;2023-02-11T01:19:10;46.28;;;28.77;;
6757;SDS011;3416;53.074;8.822;2023-02-11T01:21:37;46.92;;;28.58;;
6757;SDS011;3416;53.074;8.822;2023-02-11T01:24:04;41.60;;;27.75;;
6757;SDS011;3416;53.074;8.822;2023-02-11T01:26:31;49.15;;;30.65;;
6757;SDS011;3416;53.074;8.822;2023-02-11T01:28:58;51.22;;;30.02;;
6757;SDS011;3416;53.074;8.822;2023-02-11T01:31:29;52.90;;;30.27;;
6757;SDS011;3416;53.074;8.822;2023-02-11T01:33:56;58.72;;;30.58;;
6757;SDS011;3416;53.074;8.822;2023-02-11T01:36:25;60.25;;;32.45;;
6757;SDS011;3416;53.074;8.822;2023-02-11T01:38:53;53.17;;;30.55;;
6757;SDS011;3416;53.074;8.822;2023-02-11T01:41:21;51.67;;;31.05;;
6757;SDS011;3416;53.074;8.822;2023-02-11T01:43:48;55.13;;;29.23;;
6757;SDS011;3416;53.074;8.822;2023-02-11T01:46:27;44.33;;;25.60;;
6757;SDS011;3416;53.074;8.822;2023-02-11T01:48:57;45.47;;;29.27;;
6757;SDS011;3416;53.074;8.822;2023-02-11T01:51:31;46.85;;;30.15;;
6757;SDS011;3416;53.074;8.822;2023-02-11T01:54:04;58.60;;;31.60;;
6757;SDS011;3416;53.074;8.822;2023-02-11T01:56:52;47.10;;;27.20;;
6757;SDS011;3416;53.074;8.822;2023-02-11T01:59:40;43.72;;;26.80;;
6757;SDS011;3416;53.074;8.822;2023-02-11T02:02:12;45.15;;;27.38;;
6757;SDS011;3416;53.074;8.822;2023-02-11T02:04:45;42.75;;;27.88;;
6757;SDS011;3416;53.074;8.822;2023-02-11T02:07:21;36.00;;;25.25;;
6757;SDS011;3416;53.074;8.822;2023-02-11T02:09:55;45.63;;;27.42;;
6757;SDS011;3416;53.074;8.822;2023-02-11T02:12:25;42.13;;;24.13;;
6757;SDS011;3416;53.074;8.822;2023-02-11T02:15:07;40.00;;;25.80;;
6757;SDS011;3416;53.074;8.822;2023-02-11T02:30:02;46.53;;;26.52;;
6757;SDS011;3416;53.074;8.822;2023-02-11T02:32:52;38.63;;;25.10;;
6757;SDS011;3416;53.074;8.822;2023-02-11T02:35:28;39.40;;;24.40;;
6757;SDS011;3416;53.074;8.822;2023-02-11T02:38:05;48.95;;;24.05;;
6757;SDS011;3416;53.074;8.822;2023-02-11T02:40:37;37.13;;;25.98;;
6757;SDS011;3416;53.074;8.822;2023-02-11T02:43:11;46.25;;;24.65;;
6757;SDS011;3416;53.074;8.822;2023-02-11T02:45:40;44.28;;;23.70;;
6757;SDS011;3416;53.074;8.822;2023-02-11T02:48:21;42.08;;;24.95;;
6757;SDS011;3416;53.074;8.822;2023-02-11T02:50:52;45.70;;;25.02;;
6757;SDS011;3416;53.074;8.822;2023-02-11T02:53:26;61.45;;;26.90;;
6757;SDS011;3416;53.074;8.822;2023-02-11T02:56:03;40.15;;;25.48;;
6757;SDS011;3416;53.074;8.822;2023-02-11T02:58:46;40.75;;;22.88;;
6757;SDS011;3416;53.074;8.822;2023-02-11T03:01:41;40.40;;;25.25;;
6757;SDS011;3416;53.074;8.822;2023-02-11T03:04:17;37.58;;;25.55;;
6757;SDS011;3416;53.074;8.822;2023-02-11T03:06:51;34.63;;;25.42;;
6757;SDS011;3416;53.074;8.822;2023-02-11T03:09:24;47.28;;;23.52;;
6757;SDS011;3416;53.074;8.822;2023-02-11T03:11:54;43.42;;;26.77;;
6757;SDS011;3416;53.074;8.822;2023-02-11T03:14:22;42.75;;;23.33;;
6757;SDS011;3416;53.074;8.822;2023-02-11T03:16:51;38.95;;;23.30;;
6757;SDS011;3416;53.074;8.822;2023-02-11T03:19:24;59.45;;;23.77;;
6757;SDS011;3416;53.074;8.822;2023-02-11T03:21:54;37.13;;;21.92;;
6757;SDS011;3416;53.074;8.822;2023-02-11T03:24:25;39.35;;;23.40;;
6757;SDS011;3416;53.074;8.822;2023-02-11T03:26:57;45.70;;;24.40;;
6757;SDS011;3416;53.074;8.822;2023-02-11T03:29:30;35.38;;;22.05;;
6757;SDS011;3416;53.074;8.822;2023-02-11T03:32:01;38.65;;;24.80;;
6757;SDS011;3416;53.074;8.822;2023-02-11T03:34:35;37.08;;;22.27;;
6757;SDS011;3416;53.074;8.822;2023-02-11T03:37:08;45.72;;;23.67;;
6757;SDS011;3416;53.074;8.822;2023-02-11T03:39:39;42.05;;;21.48;;
6757;SDS011;3416;53.074;8.822;2023-02-11T03:42:10;36.38;;;21.27;;
6757;SDS011;3416;53.074;8.822;2023-02-11T03:44:41;31.15;;;20.52;;
6757;SDS011;3416;53.074;8.822;2023-02-11T03:47:11;39.33;;;22.55;;
6757;SDS011;3416;53.074;8.822;2023-02-11T03:49:43;41.55;;;22.27;;
6757;SDS011;3416;53.074;8.822;2023-02-11T03:52:14;43.90;;;23.52;;
6757;SDS011;3416;53.074;8.822;2023-02-11T03:54:43;33.92;;;20.00;;
6757;SDS011;3416;53.074;8.822;2023-02-11T03:57:14;38.20;;;20.67;;
6757;SDS011;3416;53.074;8.822;2023-02-11T03:59:50;36.17;;;21.95;;
6757;SDS011;3416;53.074;8.822;2023-02-11T04:02:19;29.95;;;19.40;;
6757;SDS011;3416;53.074;8.822;2023-02-11T04:04:48;29.30;;;19.00;;
6757;SDS011;3416;53.074;8.822;2023-02-11T04:07:15;48.38;;;18.88;;
6757;SDS011;3416;53.074;8.822;2023-02-11T04:09:43;35.35;;;21.70;;
6757;SDS011;3416;53.074;8.822;2023-02-11T04:12:09;34.75;;;19.67;;
6757;SDS011;3416;53.074;8.822;2023-02-11T04:14:36;45.67;;;20.10;;
6757;SDS011;3416;53.074;8.822;2023-02-11T04:17:03;40.03;;;18.65;;
6757;SDS011;3416;53.074;8.822;2023-02-11T04:19:30;35.88;;;19.55;;
6757;SDS011;3416;53.074;8.822;2023-02-11T04:21:59;40.05;;;22.88;;
6757;SDS011;3416;53.074;8.822;2023-02-11T04:24:26;30.20;;;17.35;;
6757;SDS011;3416;53.074;8.822;2023-02-11T04:26:53;34.53;;;20.23;;
6757;SDS011;3416;53.074;8.822;2023-02-11T04:29:20;29.00;;;17.20;;
6757;SDS011;3416;53.074;8.822;2023-02-11T04:31:47;33.30;;;18.45;;
6757;SDS011;3416;53.074;8.822;2023-02-11T04:34:16;33.33;;;19.88;;
6757;SDS011;3416;53.074;8.822;2023-02-11T04:36:43;30.92;;;18.00;;
6757;SDS011;3416;53.074;8.822;2023-02-11T04:39:11;39.45;;;18.38;;
6757;SDS011;3416;53.074;8.822;2023-02-11T04:41:38;30.10;;;19.40;;
6757;SDS011;3416;53.074;8.822;2023-02-11T04:44:05;41.55;;;19.80;;
6757;SDS011;3416;53.074;8.822;2023-02-11T04:46:32;32.42;;;18.35;;
6757;SDS011;3416;53.074;8.822;2023-02-11T04:48:59;40.15;;;18.80;;
6757;SDS011;3416;53.074;8.822;2023-02-11T04:51:26;33.63;;;18.67;;
6757;SDS011;3416;53.074;8.822;2023-02-11T04:53:53;37.65;;;19.05;;
6757;SDS011;3416;53.074;8.822;2023-02-11T04:56:22;40.67;;;20.20;;
6757;SDS011;3416;53.074;8.822;2023-02-11T04:58:49;34.33;;;20.33;;
6757;SDS011;3416;53.074;8.822;2023-02-11T05:01:16;32.17;;;19.30;;
6757;SDS011;3416;53.074;8.822;2023-02-11T05:03:43;38.08;;;18.70;;
6757;SDS011;3416;53.074;8.822;2023-02-11T05:06:10;36.88;;;17.65;;
6757;SDS011;3416;53.074;8.822;2023-02-11T05:08:37;28.73;;;19.13;;
6757;SDS011;3416;53.074;8.822;2023-02-11T05:11:04;34.13;;;20.13;;
6757;SDS011;3416;53.074;8.822;2023-02-11T05:13:33;32.90;;;17.75;;
6757;SDS011;3416;53.074;8.822;2023-02-11T05:16:03;31.10;;;16.95;;
6757;SDS011;3416;53.074;8.822;2023-02-11T05:18:30;37.67;;;18.48;;
6757;SDS011;3416;53.074;8.822;2023-02-11T05:20:57;34.47;;;19.63;;
6757;SDS011;3416;53.074;8.822;2023-02-11T05:23:24;29.70;;;17.38;;
6757;SDS011;3416;53.074;8.822;2023-02-11T05:25:51;34.65;;;20.13;;
6757;SDS011;3416;53.074;8.822;2023-02-11T05:28:18;31.75;;;20.60;;
6757;SDS011;3416;53.074;8.822;2023-02-11T05:30:47;38.20;;;19.05;;
6757;SDS011;3416;53.074;8.822;2023-02-11T05:33:14;40.63;;;18.55;;
6757;SDS011;3416;53.074;8.822;2023-02-11T05:35:42;24.63;;;16.55;;
6757;SDS011;3416;53.074;8.822;2023-02-11T05:38:09;34.75;;;17.27;;
6757;SDS011;3416;53.074;8.822;2023-02-11T05:40:37;34.75;;;19.10;;
6757;SDS011;3416;53.074;8.822;2023-02-11T05:43:04;30.05;;;18.15;;
6757;SDS011;3416;53.074;8.822;2023-02-11T05:45:32;34.08;;;19.38;;
6757;SDS011;3416;53.074;8.822;2023-02-11T05:48:00;32.22;;;18.35;;
6757;SDS011;3416;53.074;8.822;2023-02-11T05:50:27;29.50;;;16.80;;
6757;SDS011;3416;53.074;8.822;2023-02-11T05:52:54;34.28;;;17.80;;
6757;SDS011;3416;53.074;8.822;2023-02-11T05:55:21;35.85;;;19.48;;
6757;SDS011;3416;53.074;8.822;2023-02-11T05:57:48;27.02;;;17.85;;
6757;SDS011;3416;53.074;8.822;2023-02-11T06:00:15;34.53;;;18.80;;
6757;SDS011;3416;53.074;8.822;2023-02-11T06:02:42;31.83;;;20.58;;
6757;SDS011;3416;53.074;8.822;2023-02-11T06:05:10;46.15;;;19.48;;
6757;SDS011;3416;53.074;8.822;2023-02-11T06:07:37;38.00;;;19.00;;
6757;SDS011;3416;53.074;8.822;2023-02-11T06:10:05;37.35;;;17.52;;
6757;SDS011;3416;53.074;8.822;2023-02-11T06:12:32;37.38;;;19.13;;
6757;SDS011;3416;53.074;8.822;2023-02-11T06:14:59;30.02;;;18.50;;
6757;SDS011;3416;53.074;8.822;2023-02-11T06:17:26;40.75;;;21.08;;
6757;SDS011;3416;53.074;8.822;2023-02-11T06:19:56;35.00;;;19.20;;
6757;SDS011;3416;53.074;8.822;2023-02-11T06:22:25;35.83;;;17.90;;
6757;SDS011;3416;53.074;8.822;2023-02-11T06:24:52;32.85;;;19.00;;
6757;SDS011;3416;53.074;8.822;2023-02-11T06:27:19;34.58;;;19.83;;
6757;SDS011;3416;53.074;8.822;2023-02-11T06:29:46;38.33;;;20.23;;
6757;SDS011;3416;53.074;8.822;2023-02-11T06:32:13;30.02;;;18.38;;
6757;SDS011;3416;53.074;8.822;2023-02-11T06:34:40;38.03;;;20.00;;
6757;SDS011;3416;53.074;8.822;2023-02-11T06:37:07;41.78;;;20.65;;
6757;SDS011;3416;53.074;8.822;2023-02-11T06:39:35;41.85;;;22.50;;
6757;SDS011;3416;53.074;8.822;2023-02-11T06:42:02;38.20;;;22.13;;
6757;SDS011;3416;53.074;8.822;2023-02-11T06:44:30;32.17;;;19.08;;
6757;SDS011;3416;53.074;8.822;2023-02-11T06:46:57;37.92;;;21.90;;
6757;SDS011;3416;53.074;8.822;2023-02-11T06:49:24;32.53;;;18.83;;
6757;SDS011;3416;53.074;8.822;2023-02-11T06:51:50;44.35;;;21.85;;
6757;SDS011;3416;53.074;8.822;2023-02-11T06:54:17;40.33;;;22.30;;
6757;SDS011;3416;53.074;8.822;2023-02-11T06:56:46;31.38;;;21.73;;
6757;SDS011;3416;53.074;8.822;2023-02-11T06:59:13;41.92;;;20.52;;
6757;SDS011;3416;53.074;8.822;2023-02-11T07:01:41;44.85;;;23.70;;
6757;SDS011;3416;53.074;8.822;2023-02-11T07:04:09;32.22;;;20.88;;
6757;SDS011;3416;53.074;8.822;2023-02-11T07:06:36;43.40;;;23.02;;
6757;SDS011;3416;53.074;8.822;2023-02-11T07:09:03;40.80;;;21.90;;
6757;SDS011;3416;53.074;8.822;2023-02-11T07:11:30;40.80;;;20.63;;
6757;SDS011;3416;53.074;8.822;2023-02-11T07:14:00;38.25;;;22.65;;
6757;SDS011;3416;53.074;8.822;2023-02-11T07:16:29;42.10;;;21.80;;
6757;SDS011;3416;53.074;8.822;2023-02-11T07:18:56;42.75;;;22.98;;
6757;SDS011;3416;53.074;8.822;2023-02-11T07:21:24;43.63;;;21.65;;
6757;SDS011;3416;53.074;8.822;2023-02-11T07:23:51;45.30;;;22.42;;
6757;SDS011;3416;53.074;8.822;2023-02-11T07:26:19;44.10;;;22.05;;
6757;SDS011;3416;53.074;8.822;2023-02-11T07:28:47;32.05;;;20.42;;
6757;SDS011;3416;53.074;8.822;2023-02-11T07:31:17;44.22;;;21.15;;
6757;SDS011;3416;53.074;8.822;2023-02-11T07:33:46;35.95;;;21.20;;
6757;SDS011;3416;53.074;8.822;2023-02-11T07:36:13;33.38;;;22.85;;
6757;SDS011;3416;53.074;8.822;2023-02-11T07:38:41;44.17;;;22.55;;
6757;SDS011;3416;53.074;8.822;2023-02-11T07:41:09;37.72;;;22.38;;
6757;SDS011;3416;53.074;8.822;2023-02-11T07:43:37;32.13;;;20.05;;
6757;SDS011;3416;53.074;8.822;2023-02-11T07:46:06;37.53;;;21.65;;
6757;SDS011;3416;53.074;8.822;2023-02-11T07:48:37;38.35;;;20.00;;
6757;SDS011;3416;53.074;8.822;2023-02-11T07:51:05;31.15;;;19.67;;
6757;SDS011;3416;53.074;8.822;2023-02-11T07:53:37;36.55;;;20.27;;
6757;SDS011;3416;53.074;8.822;2023-02-11T07:56:04;34.60;;;19.05;;
6757;SDS011;3416;53.074;8.822;2023-02-11T07:58:34;37.15;;;21.33;;
6757;SDS011;3416;53.074;8.822;2023-02-11T08:01:01;42.28;;;18.20;;
6757;SDS011;3416;53.074;8.822;2023-02-11T08:03:29;38.05;;;21.00;;
6757;SDS011;3416;53.074;8.822;2023-02-11T08:05:58;38.58;;;20.73;;
6757;SDS011;3416;53.074;8.822;2023-02-11T08:08:28;36.20;;;21.45;;
6757;SDS011;3416;53.074;8.822;2023-02-11T08:10:55;43.38;;;21.63;;
6757;SDS011;3416;53.074;8.822;2023-02-11T08:13:22;38.70;;;22.15;;
6757;SDS011;3416;53.074;8.822;2023-02-11T08:15:51;42.58;;;21.13;;
6757;SDS011;3416;53.074;8.822;2023-02-11T08:18:18;34.53;;;21.65;;
6757;SDS011;3416;53.074;8.822;2023-02-11T08:20:46;36.92;;;22.70;;
6757;SDS011;3416;53.074;8.822;2023-02-11T08:23:14;42.13;;;22.10;;
6757;SDS011;3416;53.074;8.822;2023-02-11T08:25:41;35.28;;;21.70;;
6757;SDS011;3416;53.074;8.822;2023-02-11T08:28:08;36.45;;;20.48;;
6757;SDS011;3416;53.074;8.822;2023-02-11T08:30:35;32.13;;;19.92;;
6757;SDS011;3416;53.074;8.822;2023-02-11T08:33:02;41.00;;;19.70;;
6757;SDS011;3416;53.074;8.822;2023-02-11T08:35:29;37.78;;;20.50;;
6757;SDS011;3416;53.074;8.822;2023-02-11T08:37:57;31.33;;;18.77;;
6757;SDS011;3416;53.074;8.822;2023-02-11T08:40:25;30.75;;;17.58;;
6757;SDS011;3416;53.074;8.822;2023-02-11T08:42:52;46.50;;;20.00;;
6757;SDS011;3416;53.074;8.822;2023-02-11T08:45:19;32.35;;;18.67;;
6757;SDS011;3416;53.074;8.822;2023-02-11T08:47:46;32.63;;;18.58;;
6757;SDS011;3416;53.074;8.822;2023-02-11T08:50:12;32.85;;;19.55;;
6757;SDS011;3416;53.074;8.822;2023-02-11T08:52:39;34.13;;;18.08;;
6757;SDS011;3416;53.074;8.822;2023-02-11T08:55:07;27.42;;;17.70;;
6757;SDS011;3416;53.074;8.822;2023-02-11T08:57:35;37.70;;;19.25;;
6757;SDS011;3416;53.074;8.822;2023-02-11T09:00:02;31.55;;;17.70;;
6757;SDS011;3416;53.074;8.822;2023-02-11T09:02:30;30.75;;;20.38;;
6757;SDS011;3416;53.074;8.822;2023-02-11T09:04:57;27.90;;;18.00;;
6757;SDS011;3416;53.074;8.822;2023-02-11T09:07:23;32.00;;;18.85;;
6757;SDS011;3416;53.074;8.822;2023-02-11T09:09:51;35.03;;;19.80;;
6757;SDS011;3416;53.074;8.822;2023-02-11T09:12:18;38.22;;;18.30;;
6757;SDS011;3416;53.074;8.822;2023-02-11T09:14:47;40.03;;;20.45;;
6757;SDS011;3416;53.074;8.822;2023-02-11T09:17:13;32.38;;;18.98;;
6757;SDS011;3416;53.074;8.822;2023-02-11T09:19:40;36.00;;;21.67;;
6757;SDS011;3416;53.074;8.822;2023-02-11T09:22:07;35.15;;;18.25;;
6757;SDS011;3416;53.074;8.822;2023-02-11T09:24:35;31.58;;;18.33;;
6757;SDS011;3416;53.074;8.822;2023-02-11T09:27:02;31.92;;;18.85;;
6757;SDS011;3416;53.074;8.822;2023-02-11T09:29:29;36.33;;;20.17;;
6757;SDS011;3416;53.074;8.822;2023-02-11T09:31:57;32.33;;;19.30;;
6757;SDS011;3416;53.074;8.822;2023-02-11T09:34:24;30.65;;;18.77;;
6757;SDS011;3416;53.074;8.822;2023-02-11T09:36:51;32.05;;;17.58;;
6757;SDS011;3416;53.074;8.822;2023-02-11T09:39:18;38.97;;;19.45;;
6757;SDS011;3416;53.074;8.822;2023-02-11T09:44:51;33.47;;;19.90;;
6757;SDS011;3416;53.074;8.822;2023-02-11T09:47:22;35.47;;;17.42;;
6757;SDS011;3416;53.074;8.822;2023-02-11T09:49:52;29.08;;;19.13;;
6757;SDS011;3416;53.074;8.822;2023-02-11T09:52:26;30.35;;;18.27;;
6757;SDS011;3416;53.074;8.822;2023-02-11T09:54:59;33.67;;;19.48;;
6757;SDS011;3416;53.074;8.822;2023-02-11T09:57:30;32.03;;;20.80;;
6757;SDS011;3416;53.074;8.822;2023-02-11T09:59:59;31.98;;;20.08;;
6757;SDS011;3416;53.074;8.822;2023-02-11T10:02:30;30.15;;;19.10;;
6757;SDS011;3416;53.074;8.822;2023-02-11T10:05:11;33.45;;;19.50;;
6757;SDS011;3416;53.074;8.822;2023-02-11T10:07:46;32.08;;;20.25;;
6757;SDS011;3416;53.074;8.822;2023-02-11T10:10:24;27.40;;;17.70;;
6757;SDS011;3416;53.074;8.822;2023-02-11T10:13:15;33.60;;;19.52;;
6757;SDS011;3416;53.074;8.822;2023-02-11T10:16:07;31.05;;;18.48;;
6757;SDS011;3416;53.074;8.822;2023-02-11T10:18:49;28.45;;;17.73;;
6757;SDS011;3416;53.074;8.822;2023-02-11T10:21:30;25.42;;;18.50;;
6757;SDS011;3416;53.074;8.822;2023-02-11T10:24:09;27.42;;;18.70;;
6757;SDS011;3416;53.074;8.822;2023-02-11T10:26:37;26.65;;;16.73;;
6757;SDS011;3416;53.074;8.822;2023-02-11T10:29:10;29.85;;;19.42;;
6757;SDS011;3416;53.074;8.822;2023-02-11T10:31:46;33.72;;;19.65;;
6757;SDS011;3416;53.074;8.822;2023-02-11T10:34:18;26.90;;;18.95;;
6757;SDS011;3416;53.074;8.822;2023-02-11T10:36:45;32.75;;;20.42;;
6757;SDS011;3416;53.074;8.822;2023-02-11T10:39:15;32.30;;;19.65;;
6757;SDS011;3416;53.074;8.822;2023-02-11T10:41:44;30.95;;;18.95;;
6757;SDS011;3416;53.074;8.822;2023-02-11T10:44:18;43.10;;;18.42;;
6757;SDS011;3416;53.074;8.822;2023-02-11T10:46:49;34.10;;;19.92;;
6757;SDS011;3416;53.074;8.822;2023-02-11T10:49:34;26.55;;;17.67;;
6757;SDS011;3416;53.074;8.822;2023-02-11T10:54:55;31.02;;;19.85;;
6757;SDS011;3416;53.074;8.822;2023-02-11T10:57:32;30.65;;;20.05;;
6757;SDS011;3416;53.074;8.822;2023-02-11T11:00:05;33.75;;;19.30;;
6757;SDS011;3416;53.074;8.822;2023-02-11T11:02:51;29.55;;;18.63;;
6757;SDS011;3416;53.074;8.822;2023-02-11T11:05:22;27.45;;;16.20;;
6757;SDS011;3416;53.074;8.822;2023-02-11T11:07:55;27.95;;;16.30;;
6757;SDS011;3416;53.074;8.822;2023-02-11T11:10:30;22.83;;;13.80;;
6757;SDS011;3416;53.074;8.822;2023-02-11T11:13:09;28.05;;;17.10;;
6757;SDS011;3416;53.074;8.822;2023-02-11T11:16:05;26.27;;;17.48;;
6757;SDS011;3416;53.074;8.822;2023-02-11T11:18:34;23.98;;;16.48;;
6757;SDS011;3416;53.074;8.822;2023-02-11T11:21:04;27.48;;;16.63;;
6757;SDS011;3416;53.074;8.822;2023-02-11T11:23:33;27.35;;;16.70;;
6757;SDS011;3416;53.074;8.822;2023-02-11T11:26:02;35.63;;;16.70;;
6757;SDS011;3416;53.074;8.822;2023-02-11T11:28:32;25.95;;;15.00;;
6757;SDS011;3416;53.074;8.822;2023-02-11T11:31:03;22.70;;;16.20;;
6757;SDS011;3416;53.074;8.822;2023-02-11T11:33:39;26.83;;;15.68;;
6757;SDS011;3416;53.074;8.822;2023-02-11T11:36:10;22.05;;;14.48;;
6757;SDS011;3416;53.074;8.822;2023-02-11T11:38:43;28.27;;;15.25;;
6757;SDS011;3416;53.074;8.822;2023-02-11T11:41:15;24.73;;;15.70;;
6757;SDS011;3416;53.074;8.822;2023-02-11T11:46:30;29.95;;;15.95;;
6757;SDS011;3416;53.074;8.822;2023-02-11T11:49:04;25.70;;;15.38;;
6757;SDS011;3416;53.074;8.822;2023-02-11T11:51:40;21.85;;;15.88;;
6757;SDS011;3416;53.074;8.822;2023-02-11T11:54:11;36.60;;;18.75;;
6757;SDS011;3416;53.074;8.822;2023-02-11T11:56:40;27.85;;;15.50;;
6757;SDS011;3416;53.074;8.822;2023-02-11T11:59:15;27.95;;;15.85;;
6757;SDS011;3416;53.074;8.822;2023-02-11T12:01:47;21.65;;;14.05;;
6757;SDS011;3416;53.074;8.822;2023-02-11T12:04:39;24.75;;;15.50;;
6757;SDS011;3416;53.074;8.822;2023-02-11T12:07:23;23.83;;;14.68;;
6757;SDS011;3416;53.074;8.822;2023-02-11T12:10:14;26.52;;;14.48;;
6757;SDS011;3416;53.074;8.822;2023-02-11T12:12:59;35.25;;;15.75;;
6757;SDS011;3416;53.074;8.822;2023-02-11T12:15:35;34.42;;;14.90;;
6757;SDS011;3416;53.074;8.822;2023-02-11T12:18:15;24.70;;;13.57;;
6757;SDS011;3416;53.074;8.822;2023-02-11T12:21:01;26.42;;;13.30;;
6757;SDS011;3416;53.074;8.822;2023-02-11T12:23:40;20.60;;;13.15;;
6757;SDS011;3416;53.074;8.822;2023-02-11T12:26:20;26.85;;;13.55;;
6757;SDS011;3416;53.074;8.822;2023-02-11T12:28:52;19.25;;;12.35;;
6757;SDS011;3416;53.074;8.822;2023-02-11T12:31:30;24.42;;;13.57;;
6757;SDS011;3416;53.074;8.822;2023-02-11T12:34:17;17.52;;;12.15;;
6757;SDS011;3416;53.074;8.822;2023-02-11T12:37:03;18.23;;;11.80;;
6757;SDS011;3416;53.074;8.822;2023-02-11T12:39:41;19.67;;;11.55;;
6757;SDS011;3416;53.074;8.822;2023-02-11T12:42:22;25.85;;;15.07;;
6757;SDS011;3416;53.074;8.822;2023-02-11T12:45:26;34.00;;;13.07;;
6757;SDS011;3416;53.074;8.822;2023-02-11T12:48:00;25.88;;;13.50;;
6757;SDS011;3416;53.074;8.822;2023-02-11T12:50:38;25.02;;;11.90;;
6757;SDS011;3416;53.074;8.822;2023-02-11T12:53:22;22.17;;;12.88;;
6757;SDS011;3416;53.074;8.822;2023-02-11T12:56:03;23.27;;;13.75;;
6757;SDS011;3416;53.074;8.822;2023-02-11T12:58:36;22.90;;;12.15;;
6757;SDS011;3416;53.074;8.822;2023-02-11T13:01:04;20.83;;;13.68;;
6757;SDS011;3416;53.074;8.822;2023-02-11T13:03:35;22.45;;;11.68;;
6757;SDS011;3416;53.074;8.822;2023-02-11T13:06:07;16.98;;;12.52;;
6757;SDS011;3416;53.074;8.822;2023-02-11T13:08:37;34.08;;;13.05;;
6757;SDS011;3416;53.074;8.822;2023-02-11T13:11:11;23.40;;;13.57;;
6757;SDS011;3416;53.074;8.822;2023-02-11T13:13:46;26.23;;;13.18;;
6757;SDS011;3416;53.074;8.822;2023-02-11T13:16:17;17.52;;;12.30;;
6757;SDS011;3416;53.074;8.822;2023-02-11T13:18:50;25.45;;;12.88;;
6757;SDS011;3416;53.074;8.822;2023-02-11T13:21:27;22.17;;;10.82;;
6757;SDS011;3416;53.074;8.822;2023-02-11T13:24:04;18.98;;;9.70;;
6757;SDS011;3416;53.074;8.822;2023-02-11T13:26:41;20.38;;;10.27;;
6757;SDS011;3416;53.074;8.822;2023-02-11T13:29:20;26.67;;;11.15;;
6757;SDS011;3416;53.074;8.822;2023-02-11T13:31:55;25.92;;;11.63;;
6757;SDS011;3416;53.074;8.822;2023-02-11T13:37:23;24.45;;;11.15;;
6757;SDS011;3416;53.074;8.822;2023-02-11T13:39:58;21.13;;;10.80;;
6757;SDS011;3416;53.074;8.822;2023-02-11T13:42:29;21.45;;;11.40;;
6757;SDS011;3416;53.074;8.822;2023-02-11T13:44:58;30.13;;;11.98;;
6757;SDS011;3416;53.074;8.822;2023-02-11T13:47:27;25.08;;;11.85;;
6757;SDS011;3416;53.074;8.822;2023-02-11T13:49:58;20.80;;;12.15;;
6757;SDS011;3416;53.074;8.822;2023-02-11T13:52:27;24.50;;;11.82;;
6757;SDS011;3416;53.074;8.822;2023-02-11T13:54:57;25.17;;;13.75;;
6757;SDS011;3416;53.074;8.822;2023-02-11T13:57:35;20.70;;;13.68;;
6757;SDS011;3416;53.074;8.822;2023-02-11T14:00:09;23.63;;;12.95;;
6757;SDS011;3416;53.074;8.822;2023-02-11T14:06:55;30.23;;;17.60;;
6757;SDS011;3416;53.074;8.822;2023-02-11T14:13:17;27.67;;;19.17;;
6757;SDS011;3416;53.074;8.822;2023-02-11T14:15:48;23.13;;;12.30;;
6757;SDS011;3416;53.074;8.822;2023-02-11T14:21:31;21.95;;;12.10;;
6757;SDS011;3416;53.074;8.822;2023-02-11T14:27:06;19.70;;;11.48;;
6757;SDS011;3416;53.074;8.822;2023-02-11T14:29:37;26.17;;;11.75;;
6757;SDS011;3416;53.074;8.822;2023-02-11T14:32:13;28.55;;;12.80;;
6757;SDS011;3416;53.074;8.822;2023-02-11T14:34:52;23.25;;;13.70;;
6757;SDS011;3416;53.074;8.822;2023-02-11T14:37:29;26.00;;;13.95;;
6757;SDS011;3416;53.074;8.822;2023-02-11T14:40:17;26.80;;;13.43;;
6757;SDS011;3416;53.074;8.822;2023-02-11T14:42:54;23.40;;;11.98;;
6757;SDS011;3416;53.074;8.822;2023-02-11T14:45:24;31.25;;;13.18;;
6757;SDS011;3416;53.074;8.822;2023-02-11T14:47:57;25.05;;;13.98;;
6757;SDS011;3416;53.074;8.822;2023-02-11T14:50:32;21.35;;;12.35;;
6757;SDS011;3416;53.074;8.822;2023-02-11T14:53:05;32.70;;;12.43;;
6757;SDS011;3416;53.074;8.822;2023-02-11T14:55:40;28.55;;;13.25;;
6757;SDS011;3416;53.074;8.822;2023-02-11T14:58:16;33.17;;;12.90;;
6757;SDS011;3416;53.074;8.822;2023-02-11T15:00:50;34.63;;;12.35;;
6757;SDS011;3416;53.074;8.822;2023-02-11T15:03:26;22.92;;;10.35;;
6757;SDS011;3416;53.074;8.822;2023-02-11T15:05:58;31.52;;;12.45;;
6757;SDS011;3416;53.074;8.822;2023-02-11T15:08:34;20.48;;;11.65;;
6757;SDS011;3416;53.074;8.822;2023-02-11T15:11:06;26.27;;;12.38;;
6757;SDS011;3416;53.074;8.822;2023-02-11T15:13:38;28.65;;;11.73;;
6757;SDS011;3416;53.074;8.822;2023-02-11T15:16:12;19.98;;;12.38;;
6757;SDS011;3416;53.074;8.822;2023-02-11T15:18:43;25.40;;;12.75;;
6757;SDS011;3416;53.074;8.822;2023-02-11T15:21:18;23.38;;;10.63;;
6757;SDS011;3416;53.074;8.822;2023-02-11T15:23:53;21.38;;;12.88;;
6757;SDS011;3416;53.074;8.822;2023-02-11T15:26:21;30.15;;;12.82;;
6757;SDS011;3416;53.074;8.822;2023-02-11T15:28:49;22.95;;;11.75;;
6757;SDS011;3416;53.074;8.822;2023-02-11T15:31:18;20.52;;;13.40;;
6757;SDS011;3416;53.074;8.822;2023-02-11T15:33:48;22.92;;;13.02;;
6757;SDS011;3416;53.074;8.822;2023-02-11T15:36:16;27.77;;;12.25;;
6757;SDS011;3416;53.074;8.822;2023-02-11T15:38:44;22.35;;;12.90;;
6757;SDS011;3416;53.074;8.822;2023-02-11T15:41:31;26.52;;;16.15;;
6757;SDS011;3416;53.074;8.822;2023-02-11T15:44:02;28.92;;;14.98;;
6757;SDS011;3416;53.074;8.822;2023-02-11T15:46:31;21.20;;;12.80;;
6757;SDS011;3416;53.074;8.822;2023-02-11T15:49:03;34.40;;;14.50;;